sensor_id;sensor_type;location;lat;lon;timestamp;P1;durP1;ratioP1;P2;durP2;ratioP2
49366;SDS011;35245;52.026;8.540;2022-10-16T00:00:40;11.55;;;7.75;;
49366;SDS011;35245;52.026;8.540;2022-10-16T00:03:08;12.63;;;8.43;;
49366;SDS011;35245;52.026;8.540;2022-10-16T00:05:38;11.82;;;7.88;;
49366;SDS011;35245;52.026;8.540;2022-10-16T00:08:05;8.05;;;6.82;;
49366;SDS011;35245;52.026;8.540;2022-10-16T00:10:32;10.93;;;7.75;;
49366;SDS011;35245;52.026;8.540;2022-10-16T00:13:01;12.05;;;7.75;;
49366;SDS011;35245;52.026;8.540;2022-10-16T00:15:28;10.57;;;6.85;;
49366;SDS011;35245;52.026;8.540;2022-10-16T00:17:55;9.75;;;7.38;;
49366;SDS011;35245;52.026;8.540;2022-10-16T00:20:22;10.48;;;7.00;;
49366;SDS011;35245;52.026;8.540;2022-10-16T00:22:49;11.85;;;7.00;;
49366;SDS011;35245;52.026;8.540;2022-10-16T00:25:16;10.32;;;7.30;;
49366;SDS011;35245;52.026;8.540;2022-10-16T00:27:43;9.50;;;6.50;;
49366;SDS011;35245;52.026;8.540;2022-10-16T00:30:12;11.85;;;7.88;;
49366;SDS011;35245;52.026;8.540;2022-10-16T00:32:39;10.85;;;7.25;;
49366;SDS011;35245;52.026;8.540;2022-10-16T00:35:08;14.95;;;7.68;;
49366;SDS011;35245;52.026;8.540;2022-10-16T00:37:35;9.90;;;7.28;;
49366;SDS011;35245;52.026;8.540;2022-10-16T00:40:02;11.75;;;7.43;;
49366;SDS011;35245;52.026;8.540;2022-10-16T00:42:32;11.20;;;7.40;;
49366;SDS011;35245;52.026;8.540;2022-10-16T00:44:59;9.93;;;7.13;;
49366;SDS011;35245;52.026;8.540;2022-10-16T00:47:29;11.85;;;8.23;;
49366;SDS011;35245;52.026;8.540;2022-10-16T00:49:59;10.18;;;7.15;;
49366;SDS011;35245;52.026;8.540;2022-10-16T00:52:28;9.88;;;6.40;;
49366;SDS011;35245;52.026;8.540;2022-10-16T00:54:55;12.98;;;7.22;;
49366;SDS011;35245;52.026;8.540;2022-10-16T00:57:22;13.85;;;7.55;;
49366;SDS011;35245;52.026;8.540;2022-10-16T00:59:50;12.10;;;7.30;;
49366;SDS011;35245;52.026;8.540;2022-10-16T01:02:18;11.15;;;7.03;;
49366;SDS011;35245;52.026;8.540;2022-10-16T01:04:47;12.02;;;7.75;;
49366;SDS011;35245;52.026;8.540;2022-10-16T01:07:17;14.88;;;7.38;;
49366;SDS011;35245;52.026;8.540;2022-10-16T01:09:57;11.73;;;7.60;;
49366;SDS011;35245;52.026;8.540;2022-10-16T01:12:36;13.80;;;8.63;;
49366;SDS011;35245;52.026;8.540;2022-10-16T01:15:08;12.75;;;8.52;;
49366;SDS011;35245;52.026;8.540;2022-10-16T01:17:39;15.57;;;8.25;;
49366;SDS011;35245;52.026;8.540;2022-10-16T01:20:12;10.45;;;7.10;;
49366;SDS011;35245;52.026;8.540;2022-10-16T01:22:48;12.82;;;7.88;;
49366;SDS011;35245;52.026;8.540;2022-10-16T01:25:25;12.48;;;8.38;;
49366;SDS011;35245;52.026;8.540;2022-10-16T01:28:01;13.40;;;8.80;;
49366;SDS011;35245;52.026;8.540;2022-10-16T01:30:30;14.50;;;8.73;;
49366;SDS011;35245;52.026;8.540;2022-10-16T01:33:01;12.05;;;8.13;;
49366;SDS011;35245;52.026;8.540;2022-10-16T01:35:31;15.30;;;8.65;;
49366;SDS011;35245;52.026;8.540;2022-10-16T01:38:02;15.25;;;9.15;;
49366;SDS011;35245;52.026;8.540;2022-10-16T01:40:31;14.57;;;9.18;;
49366;SDS011;35245;52.026;8.540;2022-10-16T01:43:03;17.27;;;8.32;;
49366;SDS011;35245;52.026;8.540;2022-10-16T01:45:32;11.52;;;8.43;;
49366;SDS011;35245;52.026;8.540;2022-10-16T01:48:00;16.00;;;9.60;;
49366;SDS011;35245;52.026;8.540;2022-10-16T01:50:31;16.90;;;9.32;;
49366;SDS011;35245;52.026;8.540;2022-10-16T01:52:59;11.52;;;8.13;;
49366;SDS011;35245;52.026;8.540;2022-10-16T01:55:28;14.32;;;8.40;;
49366;SDS011;35245;52.026;8.540;2022-10-16T01:57:57;15.88;;;7.75;;
49366;SDS011;35245;52.026;8.540;2022-10-16T02:00:27;13.20;;;7.63;;
49366;SDS011;35245;52.026;8.540;2022-10-16T02:02:54;12.93;;;7.53;;
49366;SDS011;35245;52.026;8.540;2022-10-16T02:05:23;12.07;;;7.55;;
49366;SDS011;35245;52.026;8.540;2022-10-16T02:07:53;15.07;;;8.55;;
49366;SDS011;35245;52.026;8.540;2022-10-16T02:10:20;11.93;;;7.05;;
49366;SDS011;35245;52.026;8.540;2022-10-16T02:12:49;10.82;;;7.47;;
49366;SDS011;35245;52.026;8.540;2022-10-16T02:15:17;10.55;;;7.03;;
49366;SDS011;35245;52.026;8.540;2022-10-16T02:17:45;13.30;;;7.60;;
49366;SDS011;35245;52.026;8.540;2022-10-16T02:20:12;11.20;;;6.93;;
49366;SDS011;35245;52.026;8.540;2022-10-16T02:22:40;10.07;;;6.55;;
49366;SDS011;35245;52.026;8.540;2022-10-16T02:25:10;13.43;;;6.55;;
49366;SDS011;35245;52.026;8.540;2022-10-16T02:27:43;12.00;;;6.43;;
49366;SDS011;35245;52.026;8.540;2022-10-16T02:30:16;12.20;;;6.53;;
49366;SDS011;35245;52.026;8.540;2022-10-16T02:32:48;14.20;;;6.70;;
49366;SDS011;35245;52.026;8.540;2022-10-16T02:35:15;10.48;;;6.00;;
49366;SDS011;35245;52.026;8.540;2022-10-16T02:37:44;10.18;;;6.07;;
49366;SDS011;35245;52.026;8.540;2022-10-16T02:40:12;9.75;;;6.30;;
49366;SDS011;35245;52.026;8.540;2022-10-16T02:42:39;9.77;;;5.22;;
49366;SDS011;35245;52.026;8.540;2022-10-16T02:45:09;7.90;;;5.68;;
49366;SDS011;35245;52.026;8.540;2022-10-16T02:47:37;9.98;;;5.25;;
49366;SDS011;35245;52.026;8.540;2022-10-16T02:50:06;13.07;;;5.68;;
49366;SDS011;35245;52.026;8.540;2022-10-16T02:52:33;8.88;;;5.43;;
49366;SDS011;35245;52.026;8.540;2022-10-16T02:55:00;11.55;;;5.63;;
49366;SDS011;35245;52.026;8.540;2022-10-16T02:57:27;7.25;;;5.22;;
49366;SDS011;35245;52.026;8.540;2022-10-16T02:59:54;11.70;;;5.60;;
49366;SDS011;35245;52.026;8.540;2022-10-16T03:02:21;9.40;;;5.40;;
49366;SDS011;35245;52.026;8.540;2022-10-16T03:04:48;11.75;;;5.28;;
49366;SDS011;35245;52.026;8.540;2022-10-16T03:07:16;8.40;;;5.22;;
49366;SDS011;35245;52.026;8.540;2022-10-16T03:09:43;8.68;;;5.43;;
49366;SDS011;35245;52.026;8.540;2022-10-16T03:12:10;9.93;;;5.50;;
49366;SDS011;35245;52.026;8.540;2022-10-16T03:14:38;11.27;;;5.90;;
49366;SDS011;35245;52.026;8.540;2022-10-16T03:17:05;6.88;;;4.72;;
49366;SDS011;35245;52.026;8.540;2022-10-16T03:19:32;7.47;;;4.68;;
49366;SDS011;35245;52.026;8.540;2022-10-16T03:22:00;7.30;;;4.90;;
49366;SDS011;35245;52.026;8.540;2022-10-16T03:24:29;7.30;;;4.80;;
49366;SDS011;35245;52.026;8.540;2022-10-16T03:26:58;11.55;;;5.47;;
49366;SDS011;35245;52.026;8.540;2022-10-16T03:29:25;7.65;;;5.13;;
49366;SDS011;35245;52.026;8.540;2022-10-16T03:31:54;6.80;;;4.40;;
49366;SDS011;35245;52.026;8.540;2022-10-16T03:34:21;7.57;;;5.15;;
49366;SDS011;35245;52.026;8.540;2022-10-16T03:36:48;9.05;;;5.10;;
49366;SDS011;35245;52.026;8.540;2022-10-16T03:39:15;8.38;;;5.00;;
49366;SDS011;35245;52.026;8.540;2022-10-16T03:41:44;8.27;;;5.25;;
49366;SDS011;35245;52.026;8.540;2022-10-16T03:44:12;7.07;;;5.25;;
49366;SDS011;35245;52.026;8.540;2022-10-16T03:46:39;7.85;;;5.05;;
49366;SDS011;35245;52.026;8.540;2022-10-16T03:49:06;7.90;;;5.13;;
49366;SDS011;35245;52.026;8.540;2022-10-16T03:51:33;10.73;;;4.57;;
49366;SDS011;35245;52.026;8.540;2022-10-16T03:54:00;8.00;;;4.68;;
49366;SDS011;35245;52.026;8.540;2022-10-16T03:56:27;8.20;;;4.97;;
49366;SDS011;35245;52.026;8.540;2022-10-16T03:58:55;7.70;;;4.47;;
49366;SDS011;35245;52.026;8.540;2022-10-16T04:01:22;12.65;;;4.50;;
49366;SDS011;35245;52.026;8.540;2022-10-16T04:03:49;6.68;;;4.10;;
49366;SDS011;35245;52.026;8.540;2022-10-16T04:06:16;8.45;;;4.43;;
49366;SDS011;35245;52.026;8.540;2022-10-16T04:08:43;8.02;;;3.72;;
49366;SDS011;35245;52.026;8.540;2022-10-16T04:11:10;6.07;;;4.05;;
49366;SDS011;35245;52.026;8.540;2022-10-16T04:13:37;5.35;;;4.20;;
49366;SDS011;35245;52.026;8.540;2022-10-16T04:16:06;7.07;;;4.18;;
49366;SDS011;35245;52.026;8.540;2022-10-16T04:18:33;5.72;;;4.40;;
49366;SDS011;35245;52.026;8.540;2022-10-16T04:21:02;8.25;;;3.85;;
49366;SDS011;35245;52.026;8.540;2022-10-16T04:23:29;6.63;;;4.10;;
49366;SDS011;35245;52.026;8.540;2022-10-16T04:25:56;6.90;;;3.72;;
49366;SDS011;35245;52.026;8.540;2022-10-16T04:28:23;8.15;;;3.80;;
49366;SDS011;35245;52.026;8.540;2022-10-16T04:30:50;4.50;;;3.55;;
49366;SDS011;35245;52.026;8.540;2022-10-16T04:33:19;7.85;;;4.03;;
49366;SDS011;35245;52.026;8.540;2022-10-16T04:35:46;4.75;;;2.85;;
49366;SDS011;35245;52.026;8.540;2022-10-16T04:38:13;5.97;;;3.28;;
49366;SDS011;35245;52.026;8.540;2022-10-16T04:40:41;6.53;;;3.08;;
49366;SDS011;35245;52.026;8.540;2022-10-16T04:43:09;6.65;;;3.17;;
49366;SDS011;35245;52.026;8.540;2022-10-16T04:45:36;6.55;;;3.05;;
49366;SDS011;35245;52.026;8.540;2022-10-16T04:48:03;7.95;;;3.35;;
49366;SDS011;35245;52.026;8.540;2022-10-16T04:50:31;7.60;;;3.03;;
49366;SDS011;35245;52.026;8.540;2022-10-16T04:52:58;3.65;;;2.83;;
49366;SDS011;35245;52.026;8.540;2022-10-16T04:55:25;6.68;;;3.30;;
49366;SDS011;35245;52.026;8.540;2022-10-16T04:57:52;6.03;;;3.22;;
49366;SDS011;35245;52.026;8.540;2022-10-16T05:00:19;7.00;;;2.83;;
49366;SDS011;35245;52.026;8.540;2022-10-16T05:02:47;5.25;;;3.03;;
49366;SDS011;35245;52.026;8.540;2022-10-16T05:05:15;4.57;;;2.95;;
49366;SDS011;35245;52.026;8.540;2022-10-16T05:07:45;6.32;;;2.80;;
49366;SDS011;35245;52.026;8.540;2022-10-16T05:10:13;7.45;;;2.50;;
49366;SDS011;35245;52.026;8.540;2022-10-16T05:12:40;4.20;;;2.60;;
49366;SDS011;35245;52.026;8.540;2022-10-16T05:15:07;4.30;;;2.40;;
49366;SDS011;35245;52.026;8.540;2022-10-16T05:17:35;4.63;;;2.20;;
49366;SDS011;35245;52.026;8.540;2022-10-16T05:20:05;5.53;;;2.67;;
49366;SDS011;35245;52.026;8.540;2022-10-16T05:22:32;3.03;;;2.45;;
49366;SDS011;35245;52.026;8.540;2022-10-16T05:25:00;6.30;;;2.65;;
49366;SDS011;35245;52.026;8.540;2022-10-16T05:27:27;6.05;;;2.60;;
49366;SDS011;35245;52.026;8.540;2022-10-16T05:29:54;5.07;;;2.60;;
49366;SDS011;35245;52.026;8.540;2022-10-16T05:32:22;3.78;;;2.72;;
49366;SDS011;35245;52.026;8.540;2022-10-16T05:34:51;3.90;;;2.50;;
49366;SDS011;35245;52.026;8.540;2022-10-16T05:37:18;4.82;;;2.65;;
49366;SDS011;35245;52.026;8.540;2022-10-16T05:39:45;4.68;;;2.60;;
49366;SDS011;35245;52.026;8.540;2022-10-16T05:42:14;3.90;;;2.05;;
49366;SDS011;35245;52.026;8.540;2022-10-16T05:44:41;3.85;;;2.38;;
49366;SDS011;35245;52.026;8.540;2022-10-16T05:47:08;4.85;;;2.28;;
49366;SDS011;35245;52.026;8.540;2022-10-16T05:49:35;3.50;;;2.47;;
49366;SDS011;35245;52.026;8.540;2022-10-16T05:52:03;5.60;;;2.28;;
49366;SDS011;35245;52.026;8.540;2022-10-16T05:54:32;5.28;;;1.98;;
49366;SDS011;35245;52.026;8.540;2022-10-16T05:56:59;2.50;;;2.20;;
49366;SDS011;35245;52.026;8.540;2022-10-16T05:59:28;5.10;;;2.20;;
49366;SDS011;35245;52.026;8.540;2022-10-16T06:01:55;5.60;;;2.42;;
49366;SDS011;35245;52.026;8.540;2022-10-16T06:04:22;3.63;;;2.05;;
49366;SDS011;35245;52.026;8.540;2022-10-16T06:06:49;4.28;;;2.10;;
49366;SDS011;35245;52.026;8.540;2022-10-16T06:09:16;3.13;;;1.90;;
49366;SDS011;35245;52.026;8.540;2022-10-16T06:11:43;9.88;;;2.58;;
49366;SDS011;35245;52.026;8.540;2022-10-16T06:14:10;4.30;;;1.90;;
49366;SDS011;35245;52.026;8.540;2022-10-16T06:16:42;8.98;;;2.67;;
49366;SDS011;35245;52.026;8.540;2022-10-16T06:19:09;3.67;;;2.00;;
49366;SDS011;35245;52.026;8.540;2022-10-16T06:21:36;3.30;;;1.63;;
49366;SDS011;35245;52.026;8.540;2022-10-16T06:24:03;3.35;;;1.77;;
49366;SDS011;35245;52.026;8.540;2022-10-16T06:26:30;2.10;;;1.52;;
49366;SDS011;35245;52.026;8.540;2022-10-16T06:28:58;4.80;;;1.92;;
49366;SDS011;35245;52.026;8.540;2022-10-16T06:31:25;3.80;;;1.80;;
49366;SDS011;35245;52.026;8.540;2022-10-16T06:33:57;1.80;;;1.30;;
49366;SDS011;35245;52.026;8.540;2022-10-16T06:36:24;3.10;;;1.63;;
49366;SDS011;35245;52.026;8.540;2022-10-16T06:38:52;3.10;;;1.70;;
49366;SDS011;35245;52.026;8.540;2022-10-16T06:41:20;4.20;;;1.67;;
49366;SDS011;35245;52.026;8.540;2022-10-16T06:43:48;4.18;;;1.67;;
49366;SDS011;35245;52.026;8.540;2022-10-16T06:46:16;2.33;;;1.50;;
49366;SDS011;35245;52.026;8.540;2022-10-16T06:48:44;4.88;;;1.52;;
49366;SDS011;35245;52.026;8.540;2022-10-16T06:51:13;2.95;;;1.77;;
49366;SDS011;35245;52.026;8.540;2022-10-16T06:53:41;4.07;;;1.30;;
49366;SDS011;35245;52.026;8.540;2022-10-16T06:56:12;0.90;;;0.90;;
49366;SDS011;35245;52.026;8.540;2022-10-16T06:58:41;4.18;;;1.52;;
49366;SDS011;35245;52.026;8.540;2022-10-16T07:01:09;1.77;;;1.27;;
49366;SDS011;35245;52.026;8.540;2022-10-16T07:03:37;2.58;;;1.77;;
49366;SDS011;35245;52.026;8.540;2022-10-16T07:06:05;2.38;;;1.23;;
49366;SDS011;35245;52.026;8.540;2022-10-16T07:08:37;2.13;;;1.23;;
49366;SDS011;35245;52.026;8.540;2022-10-16T07:11:06;3.67;;;1.55;;
49366;SDS011;35245;52.026;8.540;2022-10-16T07:13:34;2.88;;;1.67;;
49366;SDS011;35245;52.026;8.540;2022-10-16T07:16:04;1.85;;;1.23;;
49366;SDS011;35245;52.026;8.540;2022-10-16T07:18:31;3.15;;;1.58;;
49366;SDS011;35245;52.026;8.540;2022-10-16T07:21:02;2.95;;;1.15;;
49366;SDS011;35245;52.026;8.540;2022-10-16T07:23:30;4.32;;;1.63;;
49366;SDS011;35245;52.026;8.540;2022-10-16T07:25:59;1.88;;;1.50;;
49366;SDS011;35245;52.026;8.540;2022-10-16T07:28:26;3.00;;;1.13;;
49366;SDS011;35245;52.026;8.540;2022-10-16T07:30:53;3.50;;;1.20;;
49366;SDS011;35245;52.026;8.540;2022-10-16T07:33:20;3.05;;;1.15;;
49366;SDS011;35245;52.026;8.540;2022-10-16T07:35:48;1.75;;;1.40;;
49366;SDS011;35245;52.026;8.540;2022-10-16T07:38:15;4.35;;;1.42;;
49366;SDS011;35245;52.026;8.540;2022-10-16T07:40:46;1.42;;;1.30;;
49366;SDS011;35245;52.026;8.540;2022-10-16T07:43:14;3.47;;;1.40;;
49366;SDS011;35245;52.026;8.540;2022-10-16T07:45:47;4.13;;;1.17;;
49366;SDS011;35245;52.026;8.540;2022-10-16T07:48:14;3.08;;;1.27;;
49366;SDS011;35245;52.026;8.540;2022-10-16T07:50:42;1.55;;;1.45;;
49366;SDS011;35245;52.026;8.540;2022-10-16T07:53:09;5.22;;;1.65;;
49366;SDS011;35245;52.026;8.540;2022-10-16T07:55:36;2.42;;;1.10;;
49366;SDS011;35245;52.026;8.540;2022-10-16T07:58:03;4.25;;;1.63;;
49366;SDS011;35245;52.026;8.540;2022-10-16T08:00:32;3.08;;;1.63;;
49366;SDS011;35245;52.026;8.540;2022-10-16T08:02:59;3.78;;;1.63;;
49366;SDS011;35245;52.026;8.540;2022-10-16T08:05:26;1.70;;;1.33;;
49366;SDS011;35245;52.026;8.540;2022-10-16T08:07:53;4.53;;;1.23;;
49366;SDS011;35245;52.026;8.540;2022-10-16T08:10:21;1.90;;;1.35;;
49366;SDS011;35245;52.026;8.540;2022-10-16T08:12:49;2.80;;;1.33;;
49366;SDS011;35245;52.026;8.540;2022-10-16T08:15:16;2.75;;;1.60;;
49366;SDS011;35245;52.026;8.540;2022-10-16T08:17:53;6.28;;;1.42;;
49366;SDS011;35245;52.026;8.540;2022-10-16T08:20:21;3.20;;;1.95;;
49366;SDS011;35245;52.026;8.540;2022-10-16T08:22:49;3.88;;;1.52;;
49366;SDS011;35245;52.026;8.540;2022-10-16T08:25:16;2.85;;;1.27;;
49366;SDS011;35245;52.026;8.540;2022-10-16T08:27:43;5.07;;;1.58;;
49366;SDS011;35245;52.026;8.540;2022-10-16T08:30:10;6.00;;;2.33;;
49366;SDS011;35245;52.026;8.540;2022-10-16T08:32:37;2.30;;;1.70;;
49366;SDS011;35245;52.026;8.540;2022-10-16T08:35:06;5.72;;;1.63;;
49366;SDS011;35245;52.026;8.540;2022-10-16T08:37:34;4.93;;;1.65;;
49366;SDS011;35245;52.026;8.540;2022-10-16T08:40:05;4.07;;;1.58;;
49366;SDS011;35245;52.026;8.540;2022-10-16T08:42:40;2.15;;;1.60;;
49366;SDS011;35245;52.026;8.540;2022-10-16T08:48:05;2.13;;;1.70;;
49366;SDS011;35245;52.026;8.540;2022-10-16T08:50:39;2.78;;;1.50;;
49366;SDS011;35245;52.026;8.540;2022-10-16T08:53:10;10.90;;;1.65;;
49366;SDS011;35245;52.026;8.540;2022-10-16T08:55:45;2.78;;;1.63;;
49366;SDS011;35245;52.026;8.540;2022-10-16T08:58:13;4.00;;;1.70;;
49366;SDS011;35245;52.026;8.540;2022-10-16T09:00:42;3.38;;;1.35;;
49366;SDS011;35245;52.026;8.540;2022-10-16T09:03:14;3.88;;;1.10;;
49366;SDS011;35245;52.026;8.540;2022-10-16T09:08:54;3.47;;;1.27;;
49366;SDS011;35245;52.026;8.540;2022-10-16T09:11:31;5.20;;;1.35;;
49366;SDS011;35245;52.026;8.540;2022-10-16T09:14:06;1.58;;;1.10;;
49366;SDS011;35245;52.026;8.540;2022-10-16T09:16:43;2.83;;;1.08;;
49366;SDS011;35245;52.026;8.540;2022-10-16T09:19:13;3.63;;;1.38;;
49366;SDS011;35245;52.026;8.540;2022-10-16T09:21:46;5.18;;;1.20;;
49366;SDS011;35245;52.026;8.540;2022-10-16T09:24:15;3.80;;;1.35;;
49366;SDS011;35245;52.026;8.540;2022-10-16T09:26:44;6.43;;;1.52;;
49366;SDS011;35245;52.026;8.540;2022-10-16T09:29:11;5.88;;;1.50;;
49366;SDS011;35245;52.026;8.540;2022-10-16T09:31:39;4.38;;;1.13;;
49366;SDS011;35245;52.026;8.540;2022-10-16T09:34:08;10.10;;;1.90;;
49366;SDS011;35245;52.026;8.540;2022-10-16T09:36:53;8.98;;;1.98;;
49366;SDS011;35245;52.026;8.540;2022-10-16T09:39:23;6.07;;;1.35;;
49366;SDS011;35245;52.026;8.540;2022-10-16T09:41:50;3.50;;;1.52;;
49366;SDS011;35245;52.026;8.540;2022-10-16T09:44:19;2.67;;;1.00;;
49366;SDS011;35245;52.026;8.540;2022-10-16T09:46:48;3.15;;;1.08;;
49366;SDS011;35245;52.026;8.540;2022-10-16T09:49:20;4.43;;;1.20;;
49366;SDS011;35245;52.026;8.540;2022-10-16T09:51:48;3.80;;;1.25;;
49366;SDS011;35245;52.026;8.540;2022-10-16T09:54:16;7.20;;;1.45;;
49366;SDS011;35245;52.026;8.540;2022-10-16T09:56:45;1.38;;;0.90;;
49366;SDS011;35245;52.026;8.540;2022-10-16T09:59:17;2.88;;;1.13;;
49366;SDS011;35245;52.026;8.540;2022-10-16T10:01:45;4.75;;;1.23;;
49366;SDS011;35245;52.026;8.540;2022-10-16T10:04:14;3.78;;;1.02;;
49366;SDS011;35245;52.026;8.540;2022-10-16T10:06:43;3.00;;;1.10;;
49366;SDS011;35245;52.026;8.540;2022-10-16T10:09:17;5.75;;;0.95;;
49366;SDS011;35245;52.026;8.540;2022-10-16T10:11:54;5.03;;;1.17;;
49366;SDS011;35245;52.026;8.540;2022-10-16T10:14:25;3.30;;;0.90;;
49366;SDS011;35245;52.026;8.540;2022-10-16T10:19:42;3.72;;;1.10;;
49366;SDS011;35245;52.026;8.540;2022-10-16T10:22:16;2.70;;;0.90;;
49366;SDS011;35245;52.026;8.540;2022-10-16T10:24:44;3.90;;;1.00;;
49366;SDS011;35245;52.026;8.540;2022-10-16T10:27:13;3.20;;;0.85;;
49366;SDS011;35245;52.026;8.540;2022-10-16T10:29:45;2.07;;;0.70;;
49366;SDS011;35245;52.026;8.540;2022-10-16T10:32:18;4.32;;;1.15;;
49366;SDS011;35245;52.026;8.540;2022-10-16T10:34:55;3.50;;;1.05;;
49366;SDS011;35245;52.026;8.540;2022-10-16T10:37:32;3.05;;;0.75;;
49366;SDS011;35245;52.026;8.540;2022-10-16T10:40:08;3.63;;;0.68;;
49366;SDS011;35245;52.026;8.540;2022-10-16T10:42:43;3.55;;;1.17;;
49366;SDS011;35245;52.026;8.540;2022-10-16T10:45:22;4.10;;;1.27;;
49366;SDS011;35245;52.026;8.540;2022-10-16T10:48:02;2.97;;;0.93;;
49366;SDS011;35245;52.026;8.540;2022-10-16T10:50:43;3.80;;;0.88;;
49366;SDS011;35245;52.026;8.540;2022-10-16T10:53:17;1.85;;;0.90;;
49366;SDS011;35245;52.026;8.540;2022-10-16T10:55:49;3.42;;;0.90;;
49366;SDS011;35245;52.026;8.540;2022-10-16T10:58:24;4.00;;;1.35;;
49366;SDS011;35245;52.026;8.540;2022-10-16T11:01:04;6.97;;;1.48;;
49366;SDS011;35245;52.026;8.540;2022-10-16T11:03:38;6.13;;;1.63;;
49366;SDS011;35245;52.026;8.540;2022-10-16T11:06:14;3.97;;;1.17;;
49366;SDS011;35245;52.026;8.540;2022-10-16T11:08:45;4.10;;;1.20;;
49366;SDS011;35245;52.026;8.540;2022-10-16T11:13:45;2.60;;;0.95;;
49366;SDS011;35245;52.026;8.540;2022-10-16T11:16:19;1.48;;;0.80;;
49366;SDS011;35245;52.026;8.540;2022-10-16T11:18:49;2.75;;;0.98;;
49366;SDS011;35245;52.026;8.540;2022-10-16T11:21:21;2.45;;;0.80;;
49366;SDS011;35245;52.026;8.540;2022-10-16T11:23:51;6.30;;;1.05;;
49366;SDS011;35245;52.026;8.540;2022-10-16T11:28:50;2.47;;;1.40;;
49366;SDS011;35245;52.026;8.540;2022-10-16T11:31:22;6.28;;;1.45;;
49366;SDS011;35245;52.026;8.540;2022-10-16T11:33:57;4.22;;;1.00;;
49366;SDS011;35245;52.026;8.540;2022-10-16T11:36:31;4.53;;;1.40;;
49366;SDS011;35245;52.026;8.540;2022-10-16T11:39:03;3.25;;;1.10;;
49366;SDS011;35245;52.026;8.540;2022-10-16T11:41:40;3.60;;;1.10;;
49366;SDS011;35245;52.026;8.540;2022-10-16T11:44:13;6.63;;;1.05;;
49366;SDS011;35245;52.026;8.540;2022-10-16T11:46:43;3.95;;;0.80;;
49366;SDS011;35245;52.026;8.540;2022-10-16T11:49:15;2.78;;;0.70;;
49366;SDS011;35245;52.026;8.540;2022-10-16T11:51:45;1.63;;;0.70;;
49366;SDS011;35245;52.026;8.540;2022-10-16T11:54:18;1.75;;;0.77;;
49366;SDS011;35245;52.026;8.540;2022-10-16T11:56:48;2.88;;;1.13;;
49366;SDS011;35245;52.026;8.540;2022-10-16T11:59:20;2.78;;;0.85;;
49366;SDS011;35245;52.026;8.540;2022-10-16T12:01:53;1.45;;;0.60;;
49366;SDS011;35245;52.026;8.540;2022-10-16T12:04:24;2.45;;;0.73;;
49366;SDS011;35245;52.026;8.540;2022-10-16T12:06:55;5.13;;;0.95;;
49366;SDS011;35245;52.026;8.540;2022-10-16T12:09:26;4.63;;;1.30;;
49366;SDS011;35245;52.026;8.540;2022-10-16T12:11:54;3.20;;;0.90;;
49366;SDS011;35245;52.026;8.540;2022-10-16T12:14:34;1.83;;;0.70;;
49366;SDS011;35245;52.026;8.540;2022-10-16T12:19:57;2.22;;;0.60;;
49366;SDS011;35245;52.026;8.540;2022-10-16T12:22:25;2.03;;;0.77;;
49366;SDS011;35245;52.026;8.540;2022-10-16T12:24:54;2.90;;;0.85;;
49366;SDS011;35245;52.026;8.540;2022-10-16T12:27:23;3.63;;;1.15;;
49366;SDS011;35245;52.026;8.540;2022-10-16T12:29:55;3.70;;;0.98;;
49366;SDS011;35245;52.026;8.540;2022-10-16T12:32:26;5.47;;;1.10;;
49366;SDS011;35245;52.026;8.540;2022-10-16T12:34:55;4.38;;;0.77;;
49366;SDS011;35245;52.026;8.540;2022-10-16T12:37:24;2.25;;;0.75;;
49366;SDS011;35245;52.026;8.540;2022-10-16T12:39:53;3.38;;;1.00;;
49366;SDS011;35245;52.026;8.540;2022-10-16T12:42:30;3.38;;;1.23;;
49366;SDS011;35245;52.026;8.540;2022-10-16T12:45:01;4.28;;;0.70;;
49366;SDS011;35245;52.026;8.540;2022-10-16T12:47:46;2.35;;;0.60;;
49366;SDS011;35245;52.026;8.540;2022-10-16T12:50:31;4.00;;;1.55;;
49366;SDS011;35245;52.026;8.540;2022-10-16T12:53:00;4.70;;;1.45;;
49366;SDS011;35245;52.026;8.540;2022-10-16T12:55:30;4.55;;;1.08;;
49366;SDS011;35245;52.026;8.540;2022-10-16T12:58:17;3.67;;;1.20;;
49366;SDS011;35245;52.026;8.540;2022-10-16T13:00:53;2.80;;;1.30;;
49366;SDS011;35245;52.026;8.540;2022-10-16T13:03:33;3.53;;;1.48;;
49366;SDS011;35245;52.026;8.540;2022-10-16T13:06:21;2.30;;;1.10;;
49366;SDS011;35245;52.026;8.540;2022-10-16T13:08:58;3.20;;;1.40;;
49366;SDS011;35245;52.026;8.540;2022-10-16T13:11:53;4.43;;;1.23;;
49366;SDS011;35245;52.026;8.540;2022-10-16T13:14:39;3.95;;;1.10;;
49366;SDS011;35245;52.026;8.540;2022-10-16T13:17:33;3.65;;;1.10;;
49366;SDS011;35245;52.026;8.540;2022-10-16T13:20:07;3.28;;;1.15;;
49366;SDS011;35245;52.026;8.540;2022-10-16T13:22:45;3.42;;;1.17;;
49366;SDS011;35245;52.026;8.540;2022-10-16T13:25:19;3.70;;;1.58;;
49366;SDS011;35245;52.026;8.540;2022-10-16T13:27:51;4.10;;;2.00;;
49366;SDS011;35245;52.026;8.540;2022-10-16T13:30:22;2.50;;;1.60;;
49366;SDS011;35245;52.026;8.540;2022-10-16T13:32:53;6.18;;;2.40;;
49366;SDS011;35245;52.026;8.540;2022-10-16T13:35:25;3.35;;;1.45;;
49366;SDS011;35245;52.026;8.540;2022-10-16T13:38:03;4.10;;;1.55;;
49366;SDS011;35245;52.026;8.540;2022-10-16T13:40:31;3.78;;;1.58;;
49366;SDS011;35245;52.026;8.540;2022-10-16T13:42:59;4.28;;;1.30;;
49366;SDS011;35245;52.026;8.540;2022-10-16T13:45:27;5.35;;;1.60;;
49366;SDS011;35245;52.026;8.540;2022-10-16T13:48:02;4.18;;;1.50;;
49366;SDS011;35245;52.026;8.540;2022-10-16T13:50:30;2.70;;;1.15;;
49366;SDS011;35245;52.026;8.540;2022-10-16T13:53:03;4.18;;;1.55;;
49366;SDS011;35245;52.026;8.540;2022-10-16T13:55:31;4.88;;;1.60;;
49366;SDS011;35245;52.026;8.540;2022-10-16T13:58:04;4.00;;;1.25;;
49366;SDS011;35245;52.026;8.540;2022-10-16T14:00:33;3.25;;;2.30;;
49366;SDS011;35245;52.026;8.540;2022-10-16T14:03:02;3.15;;;1.50;;
49366;SDS011;35245;52.026;8.540;2022-10-16T14:05:31;3.60;;;1.58;;
49366;SDS011;35245;52.026;8.540;2022-10-16T14:07:59;3.85;;;1.67;;
49366;SDS011;35245;52.026;8.540;2022-10-16T14:10:27;2.17;;;1.10;;
49366;SDS011;35245;52.026;8.540;2022-10-16T14:12:59;5.72;;;1.33;;
49366;SDS011;35245;52.026;8.540;2022-10-16T14:15:27;3.33;;;1.10;;
49366;SDS011;35245;52.026;8.540;2022-10-16T14:17:56;3.05;;;1.13;;
49366;SDS011;35245;52.026;8.540;2022-10-16T14:20:26;2.08;;;1.00;;
49366;SDS011;35245;52.026;8.540;2022-10-16T14:23:01;4.05;;;1.17;;
49366;SDS011;35245;52.026;8.540;2022-10-16T14:25:29;4.40;;;1.20;;
49366;SDS011;35245;52.026;8.540;2022-10-16T14:27:58;2.55;;;0.90;;
49366;SDS011;35245;52.026;8.540;2022-10-16T14:30:27;3.25;;;1.77;;
49366;SDS011;35245;52.026;8.540;2022-10-16T14:32:55;6.10;;;3.03;;
49366;SDS011;35245;52.026;8.540;2022-10-16T14:35:24;6.82;;;2.40;;
49366;SDS011;35245;52.026;8.540;2022-10-16T14:37:54;5.90;;;2.58;;
49366;SDS011;35245;52.026;8.540;2022-10-16T14:40:23;4.25;;;1.90;;
49366;SDS011;35245;52.026;8.540;2022-10-16T14:42:51;4.82;;;2.63;;
49366;SDS011;35245;52.026;8.540;2022-10-16T14:45:19;7.93;;;4.07;;
49366;SDS011;35245;52.026;8.540;2022-10-16T14:47:49;5.45;;;1.95;;
49366;SDS011;35245;52.026;8.540;2022-10-16T14:50:17;4.50;;;2.05;;
49366;SDS011;35245;52.026;8.540;2022-10-16T14:52:45;4.95;;;2.40;;
49366;SDS011;35245;52.026;8.540;2022-10-16T14:55:14;6.32;;;2.58;;
49366;SDS011;35245;52.026;8.540;2022-10-16T14:57:42;8.00;;;3.55;;
49366;SDS011;35245;52.026;8.540;2022-10-16T15:00:14;6.28;;;3.22;;
49366;SDS011;35245;52.026;8.540;2022-10-16T15:02:44;3.78;;;1.90;;
49366;SDS011;35245;52.026;8.540;2022-10-16T15:05:12;3.05;;;1.40;;
49366;SDS011;35245;52.026;8.540;2022-10-16T15:07:41;2.92;;;1.42;;
49366;SDS011;35245;52.026;8.540;2022-10-16T15:10:10;4.63;;;1.60;;
49366;SDS011;35245;52.026;8.540;2022-10-16T15:12:37;5.18;;;2.20;;
49366;SDS011;35245;52.026;8.540;2022-10-16T15:18:04;2.35;;;1.30;;
49366;SDS011;35245;52.026;8.540;2022-10-16T15:20:32;3.75;;;1.30;;